Time;durP1;ratioP1;P1;durP2;ratioP2;P2;SDS_P1;SDS_P2;PMS_P1;PMS_P2;Temp;Humidity;BMP_temperature;BMP_pressure;BME280_temperature;BME280_humidity;BME280_pressure;Samples;Min_cycle;Max_cycle;Signal;HPM_P1;HPM_P2
2023/01/18 00:03:45;;;;;;;1.13;0.70;;;;;;;16.54;49.46;93651.47;10363159;28;20097;-27
2023/01/18 00:08:45;;;;;;;0.57;0.50;;;;;;;16.47;49.42;93643.34;10368048;28;20779;-28
2023/01/18 00:13:46;;;;;;;0.40;0.40;;;;;;;16.51;48.69;93654.94;10367619;28;20291;-27
2023/01/18 00:18:52;;;;;;;0.82;0.50;;;;;;;16.51;48.84;93652.41;10369397;28;20577;-27
2023/01/18 00:23:54;;;;;;;0.77;0.70;;;;;;;16.48;49.51;93655.09;10367094;28;20054;-26
2023/01/18 00:28:56;;;;;;;0.63;0.63;;;;;;;16.49;48.85;93666.81;10364904;28;20068;-27
2023/01/18 00:33:56;;;;;;;0.73;0.43;;;;;;;16.45;48.66;93660.25;10365616;28;20464;-27
2023/01/18 00:38:57;;;;;;;0.77;0.67;;;;;;;16.47;49.28;93668.59;10374735;28;20128;-27
2023/01/18 00:43:57;;;;;;;0.88;0.60;;;;;;;16.48;49.43;93669.41;10367572;28;20046;-27
2023/01/18 00:48:57;;;;;;;0.90;0.47;;;;;;;16.47;48.88;93672.81;10366266;28;20037;-26
2023/01/18 00:53:58;;;;;;;0.77;0.60;;;;;;;16.48;48.94;93684.53;10364993;28;20050;-27
2023/01/18 00:58:58;;;;;;;0.60;0.50;;;;;;;16.44;49.06;93671.22;10366501;28;20126;-27
2023/01/18 01:09:23;;;;;;;0.80;0.60;;;;;;;16.51;49.88;93685.25;10355544;28;20032;-27
2023/01/18 01:30:20;;;;;;;0.50;0.40;;;;;;;16.47;48.89;93733.41;10359930;28;20030;-26
2023/01/18 01:35:20;;;;;;;1.00;0.70;;;;;;;16.46;48.26;93726.72;10362539;28;20045;-26
2023/01/18 01:40:20;;;;;;;0.63;0.30;;;;;;;16.45;48.39;93741.03;10362661;28;20084;-26
2023/01/18 01:45:25;;;;;;;0.37;0.37;;;;;;;16.48;48.33;93740.09;10366831;28;20057;-26
2023/01/18 01:50:33;;;;;;;0.40;0.40;;;;;;;16.49;48.67;93741.72;10361426;28;20041;-26
2023/01/18 01:55:38;;;;;;;0.30;0.30;;;;;;;16.49;48.28;93749.31;10372198;28;20026;-26
2023/01/18 02:00:38;;;;;;;0.40;0.30;;;;;;;16.46;48.76;93757.81;10369158;28;20061;-27
2023/01/18 02:05:42;;;;;;;0.50;0.50;;;;;;;16.44;48.33;93752.00;10372448;28;20057;-26
2023/01/18 02:10:43;;;;;;;0.40;0.40;;;;;;;16.47;48.13;93754.44;10359863;28;20426;-27
2023/01/18 02:16:02;;;;;;;0.28;0.20;;;;;;;16.45;48.61;93756.19;10379856;28;20064;-27
2023/01/18 02:21:22;;;;;;;0.40;0.30;;;;;;;16.47;49.26;93754.44;10364293;28;20107;-27
2023/01/18 02:26:41;;;;;;;0.30;0.28;;;;;;;16.43;48.96;93755.41;10365338;28;20120;-26
2023/01/18 02:31:58;;;;;;;0.20;0.20;;;;;;;16.46;49.10;93767.91;10359948;28;20041;-27
2023/01/18 02:37:09;;;;;;;0.25;0.20;;;;;;;16.45;48.54;93771.31;10371093;28;20038;-26
2023/01/18 02:47:38;;;;;;;0.40;0.40;;;;;;;16.45;48.62;93789.00;10368528;28;20022;-27
2023/01/18 02:52:41;;;;;;;0.60;0.20;;;;;;;16.46;48.32;93793.16;10368304;28;20026;-27
2023/01/18 02:57:42;;;;;;;0.30;0.30;;;;;;;16.45;48.71;93796.56;10371580;28;20033;-27
2023/01/18 03:02:45;;;;;;;0.30;0.20;;;;;;;16.46;48.29;93812.56;10366972;28;20079;-27
2023/01/18 03:07:57;;;;;;;0.10;0.10;;;;;;;16.44;48.74;93815.13;10367091;28;20596;-27
2023/01/18 03:13:01;;;;;;;0.52;0.30;;;;;;;16.41;49.04;93815.25;10356440;28;20051;-26
2023/01/18 03:18:26;;;;;;;0.20;0.20;;;;;;;16.41;48.54;93815.25;10367058;28;20045;-26
2023/01/18 03:23:37;;;;;;;0.20;0.20;;;;;;;16.38;48.66;93815.34;10353835;28;20124;-27
2023/01/18 03:34:13;;;;;;;0.32;0.30;;;;;;;16.43;48.47;93832.84;10366400;28;20026;-27
2023/01/18 03:39:29;;;;;;;0.50;0.22;;;;;;;16.47;48.88;93845.31;10366068;28;20048;-27
2023/01/18 03:44:37;;;;;;;0.43;0.40;;;;;;;16.45;49.07;93857.16;10363993;28;20042;-27
2023/01/18 03:49:38;;;;;;;0.30;0.30;;;;;;;16.42;48.40;93872.44;10362734;28;20029;-26
2023/01/18 03:55:02;;;;;;;0.40;0.30;;;;;;;16.42;48.32;93869.06;10362729;28;20030;-26
2023/01/18 04:00:06;;;;;;;0.30;0.30;;;;;;;16.38;48.71;93886.03;10361071;28;20515;-27
2023/01/18 04:05:13;;;;;;;0.30;0.28;;;;;;;16.38;48.58;93895.31;10368454;28;20049;-27
2023/01/18 04:10:13;;;;;;;0.60;0.30;;;;;;;16.38;48.33;93901.19;10356586;28;20044;-27
2023/01/18 04:15:14;;;;;;;0.30;0.27;;;;;;;16.37;48.30;93908.84;10368197;28;20053;-28
2023/01/18 04:20:15;;;;;;;0.60;0.40;;;;;;;16.38;48.47;93921.38;10359959;28;20378;-27
2023/01/18 04:25:15;;;;;;;0.20;0.20;;;;;;;16.35;48.40;93929.03;10373585;28;20042;-26
2023/01/18 04:30:16;;;;;;;0.40;0.30;;;;;;;16.36;47.95;93933.22;10380381;28;20096;-26
2023/01/18 04:35:16;;;;;;;0.40;0.25;;;;;;;16.36;48.24;93947.53;10367752;28;20416;-28
2023/01/18 04:40:16;;;;;;;0.47;0.30;;;;;;;16.38;48.21;93950.88;10356112;28;20038;-27
2023/01/18 04:45:18;;;;;;;0.40;0.40;;;;;;;16.39;47.66;93953.34;10360558;28;20531;-26
2023/01/18 04:50:18;;;;;;;0.13;0.13;;;;;;;16.42;47.79;93957.44;10350148;28;20048;-27
2023/01/18 04:55:19;;;;;;;0.80;0.13;;;;;;;16.48;47.71;93968.16;10327526;28;20037;-26
2023/01/18 05:00:21;;;;;;;0.60;0.57;;;;;;;16.50;47.31;93970.59;10329737;28;20041;-26
2023/01/18 05:05:21;;;;;;;0.20;0.20;;;;;;;16.53;46.78;93985.66;10329071;28;20046;-27
2023/01/18 05:10:23;;;;;;;0.20;0.20;;;;;;;16.54;46.86;93997.41;10332949;28;20053;-27
2023/01/18 05:15:24;;;;;;;0.52;0.38;;;;;;;16.57;46.89;94003.19;10333336;28;20041;-27
2023/01/18 05:20:24;;;;;;;0.20;0.20;;;;;;;16.56;46.46;94019.22;10336703;28;20030;-26
2023/01/18 05:25:24;;;;;;;1.10;0.30;;;;;;;16.57;46.44;94028.44;10367243;28;20038;-26
2023/01/18 05:30:25;;;;;;;0.63;0.57;;;;;;;16.57;46.55;94033.47;10359894;28;20029;-27
2023/01/18 05:35:25;;;;;;;1.57;0.27;;;;;;;16.60;46.58;94052.75;10351963;28;20045;-28
2023/01/18 05:40:26;;;;;;;0.37;0.23;;;;;;;16.58;46.56;94054.50;10360998;28;20041;-26
2023/01/18 05:45:26;;;;;;;0.40;0.30;;;;;;;16.54;45.92;94063.88;10374558;28;20132;-26
2023/01/18 05:50:27;;;;;;;0.60;0.40;;;;;;;16.57;47.04;94076.41;10381156;28;20037;-26
2023/01/18 05:55:27;;;;;;;0.77;0.53;;;;;;;16.56;46.47;94079.81;10370141;28;20406;-26
2023/01/18 06:00:28;;;;;;;1.03;0.60;;;;;;;16.59;46.95;94088.97;10370269;28;20526;-27
2023/01/18 06:05:28;;;;;;;3.60;1.00;;;;;;;16.52;46.99;94093.41;10380322;28;20083;-27
2023/01/18 06:10:28;;;;;;;2.35;0.95;;;;;;;16.52;50.08;94111.09;10361697;28;20402;-28
2023/01/18 06:15:29;;;;;;;2.90;1.17;;;;;;;16.48;51.04;94114.59;10369840;28;20038;-27
2023/01/18 06:20:29;;;;;;;7.10;1.10;;;;;;;16.49;48.77;94125.50;10367510;28;20064;-28
2023/01/18 06:25:29;;;;;;;3.53;1.30;;;;;;;16.52;48.35;94125.44;10364928;28;20061;-27
2023/01/18 06:30:31;;;;;;;8.43;4.43;;;;;;;16.51;48.10;94144.78;10372764;28;20707;-27
2023/01/18 06:35:35;;;;;;;4.32;2.20;;;;;;;16.18;45.16;94150.91;10373714;28;20129;-26
2023/01/18 06:40:36;;;;;;;10.75;5.45;;;;;;;16.37;47.57;94162.09;10368652;28;20038;-27
2023/01/18 06:45:36;;;;;;;10.73;5.57;;;;;;;16.42;46.57;94177.94;10370842;28;20042;-26
2023/01/18 06:50:36;;;;;;;8.90;5.87;;;;;;;16.45;48.53;94185.38;10367457;28;20037;-26
2023/01/18 06:55:37;;;;;;;5.80;4.60;;;;;;;16.46;47.80;94197.13;10364239;28;20045;-26
2023/01/18 07:00:37;;;;;;;6.80;4.27;;;;;;;16.46;46.76;94202.19;10371678;28;20038;-25
2023/01/18 07:05:38;;;;;;;7.97;4.13;;;;;;;16.45;48.25;94214.88;10365077;28;20445;-27
2023/01/18 07:10:38;;;;;;;5.70;3.90;;;;;;;16.42;48.17;94215.78;10364073;28;20025;-26
2023/01/18 07:15:39;;;;;;;5.82;3.65;;;;;;;16.43;47.54;94227.53;10371928;28;20060;-27
2023/01/18 07:20:39;;;;;;;5.20;3.55;;;;;;;16.42;47.93;94238.53;10368513;28;20052;-27
2023/01/18 07:25:39;;;;;;;7.40;3.97;;;;;;;16.42;49.10;94250.31;10367458;28;20552;-27
2023/01/18 07:30:39;;;;;;;6.40;4.03;;;;;;;16.39;49.47;94258.81;10370619;28;20068;-27
2023/01/18 07:35:40;;;;;;;5.30;3.63;;;;;;;16.36;49.91;94268.16;10368935;28;20113;-27
2023/01/18 07:40:40;;;;;;;4.03;2.80;;;;;;;16.39;47.90;94284.06;10366824;28;20030;-27
2023/01/18 07:45:42;;;;;;;5.27;2.50;;;;;;;16.39;47.73;94286.59;10370278;28;20095;-26
2023/01/18 07:50:42;;;;;;;3.22;2.38;;;;;;;16.42;47.47;94298.28;10368314;28;20029;-27
2023/01/18 07:55:42;;;;;;;4.00;2.17;;;;;;;16.44;47.00;94310.00;10365055;28;20033;-26
2023/01/18 08:00:43;;;;;;;3.57;2.10;;;;;;;16.47;47.26;94325.06;10369364;28;20048;-27
2023/01/18 08:05:45;;;;;;;3.10;1.98;;;;;;;16.45;46.15;94331.84;10372487;28;20100;-27
2023/01/18 08:10:45;;;;;;;2.90;1.98;;;;;;;16.43;47.25;94343.69;10367450;28;20038;-28
2023/01/18 08:15:45;;;;;;;2.30;1.97;;;;;;;16.41;47.30;94345.44;10368272;28;20037;-26
2023/01/18 08:20:49;;;;;;;1.90;1.50;;;;;;;16.37;46.92;94355.69;10360356;28;20042;-27
2023/01/18 08:25:50;;;;;;;2.42;1.60;;;;;;;16.37;47.52;94368.31;10362877;28;20490;-26
2023/01/18 08:30:51;;;;;;;2.22;1.63;;;;;;;16.34;47.26;94369.19;10366984;28;20515;-27
2023/01/18 08:35:51;;;;;;;2.67;2.10;;;;;;;16.35;47.64;94388.50;10367735;28;20095;-26
2023/01/18 08:40:51;;;;;;;1.90;1.40;;;;;;;16.35;47.38;94391.03;10364104;28;20067;-25
2023/01/18 08:45:52;;;;;;;3.63;1.67;;;;;;;16.30;48.21;94402.13;10375924;28;20402;-26
2023/01/18 08:50:52;;;;;;;2.53;1.73;;;;;;;16.30;48.53;94412.22;10366347;28;20050;-26
2023/01/18 08:55:52;;;;;;;2.00;1.50;;;;;;;16.30;49.00;94417.28;10368052;28;20033;-27
2023/01/18 09:00:53;;;;;;;2.53;1.53;;;;;;;16.32;47.72;94430.69;10366436;28;20037;-27
2023/01/18 09:05:54;;;;;;;2.00;1.52;;;;;;;16.32;47.67;94439.09;10364245;28;20037;-28
2023/01/18 09:10:54;;;;;;;2.13;1.52;;;;;;;16.31;47.31;94439.97;10359735;28;20040;-26
2023/01/18 09:16:06;;;;;;;1.57;1.43;;;;;;;16.33;47.64;94442.44;10360384;28;20038;-27
2023/01/18 09:21:10;;;;;;;1.75;1.65;;;;;;;16.30;47.60;94462.72;10370884;28;20025;-27
2023/01/18 09:26:17;;;;;;;2.25;1.83;;;;;;;16.35;46.66;94481.09;10359224;28;20108;-27
2023/01/18 09:31:19;;;;;;;1.73;1.52;;;;;;;16.34;46.42;94492.88;10365815;28;20034;-27
2023/01/18 09:36:25;;;;;;;1.67;1.33;;;;;;;16.34;46.22;94500.47;10365500;28;20083;-26
2023/01/18 09:41:35;;;;;;;1.80;1.40;;;;;;;16.32;46.95;94504.72;10367368;28;20030;-27
2023/01/18 09:46:39;;;;;;;1.83;1.40;;;;;;;16.34;46.49;94510.56;10362497;28;20058;-26
2023/01/18 09:51:53;;;;;;;2.17;1.35;;;;;;;16.34;46.86;94513.09;10358150;28;20114;-27
2023/01/18 09:57:15;;;;;;;1.52;1.30;;;;;;;16.32;46.83;94529.97;10359810;28;20120;-27
2023/01/18 10:02:22;;;;;;;1.30;1.10;;;;;;;16.31;46.74;94538.44;10357290;28;20034;-28
2023/01/18 10:07:26;;;;;;;2.13;1.70;;;;;;;16.31;47.67;94546.00;10358994;28;20553;-27
2023/01/18 10:12:42;;;;;;;2.15;1.55;;;;;;;16.30;48.09;94553.59;10368024;28;20042;-26
2023/01/18 10:17:44;;;;;;;1.33;1.15;;;;;;;16.28;47.30;94563.72;10371884;28;20062;-26
2023/01/18 10:23:07;;;;;;;2.53;1.40;;;;;;;16.27;47.49;94567.13;10367399;28;20046;-26
2023/01/18 10:28:31;;;;;;;1.85;1.13;;;;;;;16.27;47.13;94577.22;10351692;28;20053;-27
2023/01/18 10:33:39;;;;;;;1.40;1.23;;;;;;;16.25;47.12;94576.44;10365500;28;20040;-27
2023/01/18 10:38:40;;;;;;;2.63;1.58;;;;;;;16.26;46.74;94590.72;10369356;28;20033;-27
2023/01/18 10:43:42;;;;;;;1.38;1.27;;;;;;;16.26;46.77;94595.78;10371868;28;20025;-27
2023/01/18 10:48:50;;;;;;;2.65;1.25;;;;;;;16.24;46.45;94612.66;10378964;28;20099;-27
2023/01/18 10:53:50;;;;;;;1.42;0.90;;;;;;;16.22;46.38;94616.91;10364571;28;20040;-26
2023/01/18 10:58:59;;;;;;;1.50;1.20;;;;;;;16.21;46.08;94622.81;10390476;28;20585;-28
2023/01/18 11:04:19;;;;;;;1.75;1.40;;;;;;;16.21;46.62;94622.00;10366914;28;20034;-28
2023/01/18 11:09:38;;;;;;;1.23;0.93;;;;;;;16.22;46.88;94627.03;10369890;28;20253;-28
2023/01/18 11:14:38;;;;;;;5.30;1.23;;;;;;;16.25;46.25;94631.13;10371026;28;20386;-28
2023/01/18 11:19:40;;;;;;;2.23;1.27;;;;;;;16.22;46.61;94632.06;10368420;28;20030;-27
2023/01/18 11:24:41;;;;;;;1.30;1.20;;;;;;;16.22;47.60;94639.63;10364188;28;20038;-27
2023/01/18 11:29:44;;;;;;;4.85;2.38;;;;;;;16.26;47.66;94648.78;10370240;28;20037;-27
2023/01/18 11:34:50;;;;;;;2.75;2.33;;;;;;;16.30;47.76;94645.31;10364901;28;20026;-28
2023/01/18 11:39:50;;;;;;;2.33;1.80;;;;;;;16.36;46.87;94656.97;10374168;28;20424;-28
2023/01/18 11:44:56;;;;;;;1.90;1.67;;;;;;;16.39;46.45;94664.50;10376623;28;20034;-27
2023/01/18 11:50:12;;;;;;;2.70;1.80;;;;;;;16.40;46.53;94666.16;10369527;28;20087;-27
2023/01/18 11:55:34;;;;;;;1.83;1.58;;;;;;;16.38;46.37;94663.66;10370415;28;20040;-27
2023/01/18 12:00:49;;;;;;;1.90;1.48;;;;;;;16.39;46.11;94662.81;10368229;28;20048;-28
2023/01/18 12:05:56;;;;;;;2.58;2.00;;;;;;;16.36;46.28;94667.06;10383109;28;20494;-28
2023/01/18 12:11:07;;;;;;;3.55;2.72;;;;;;;16.44;46.58;94678.66;10360970;28;20052;-28
2023/01/18 12:16:15;;;;;;;4.60;2.60;;;;;;;16.48;47.55;94677.75;10368059;28;20391;-25
2023/01/18 12:21:37;;;;;;;4.03;2.60;;;;;;;16.46;46.47;94687.03;10364138;28;20030;-28
2023/01/18 12:26:46;;;;;;;3.72;2.50;;;;;;;16.43;46.45;94684.59;10354256;28;20041;-27
2023/01/18 12:32:13;;;;;;;4.95;3.05;;;;;;;16.39;47.93;94694.78;10369562;28;20109;-27
2023/01/18 12:37:30;;;;;;;7.53;3.33;;;;;;;16.41;47.53;94693.06;10367658;28;20423;-31
2023/01/18 12:42:38;;;;;;;6.72;3.45;;;;;;;16.34;49.66;94707.50;10364697;28;20050;-28
2023/01/18 12:47:58;;;;;;;8.00;3.33;;;;;;;16.22;46.40;94712.84;10360280;28;20165;-28
2023/01/18 12:53:05;;;;;;;4.75;3.17;;;;;;;16.36;47.54;94720.91;10368120;28;20063;-27
2023/01/18 12:58:09;;;;;;;8.95;3.40;;;;;;;16.23;45.11;94724.59;10366410;28;20093;-28
2023/01/18 13:03:14;;;;;;;4.22;1.98;;;;;;;16.07;43.83;94725.81;10365557;28;20046;-28
2023/01/18 13:08:52;;;;;;;4.47;2.47;;;;;;;16.15;45.50;94736.56;10368173;28;20591;-28
2023/01/18 13:14:01;;;;;;;7.32;2.35;;;;;;;16.27;46.31;94743.84;10371092;28;20517;-28
2023/01/18 13:19:09;;;;;;;4.90;2.72;;;;;;;16.32;46.56;94746.25;10357978;28;20521;-28
2023/01/18 13:24:19;;;;;;;5.28;2.42;;;;;;;16.37;46.12;94747.84;10359508;28;20057;-27
2023/01/18 13:29:28;;;;;;;3.97;1.83;;;;;;;16.39;46.21;94757.91;10366770;28;20045;-26
2023/01/18 13:34:34;;;;;;;3.22;2.08;;;;;;;16.38;46.12;94762.13;10364461;28;20030;-28
2023/01/18 13:39:44;;;;;;;2.93;1.93;;;;;;;16.37;45.69;94767.22;10371584;28;20040;-27
2023/01/18 13:44:48;;;;;;;3.63;2.40;;;;;;;16.37;46.34;94780.66;10372613;28;20061;-28
2023/01/18 13:49:49;;;;;;;3.03;1.80;;;;;;;16.38;46.58;94789.09;10367712;28;20383;-27
2023/01/18 13:54:55;;;;;;;2.97;2.03;;;;;;;16.39;45.89;94795.81;10366042;28;20038;-28
2023/01/18 13:59:56;;;;;;;2.25;1.52;;;;;;;16.41;46.41;94810.06;10373711;28;20368;-28
2023/01/18 14:05:22;;;;;;;2.13;1.40;;;;;;;16.39;46.66;94811.78;10368543;28;20042;-28
2023/01/18 14:10:30;;;;;;;4.10;2.33;;;;;;;16.39;46.61;94832.00;10372035;28;20422;-28
2023/01/18 14:15:49;;;;;;;1.85;1.48;;;;;;;16.38;47.00;94832.84;10365177;28;20075;-28
2023/01/18 14:21:08;;;;;;;2.40;1.67;;;;;;;16.40;46.07;94846.28;10373037;28;20040;-26
2023/01/18 14:26:17;;;;;;;2.55;1.63;;;;;;;16.41;46.23;94855.50;10369006;28;20045;-27
2023/01/18 14:31:23;;;;;;;2.20;1.40;;;;;;;16.42;46.76;94859.69;10372663;28;20033;-28
2023/01/18 14:36:26;;;;;;;;;;;;;;;16.45;45.84;94879.00;10371959;28;20049;-28
2023/01/18 14:41:29;;;;;;;2.13;1.33;;;;;;;16.42;46.70;94886.63;10370376;28;19922;-27
2023/01/18 14:46:29;;;;;;;2.00;1.50;;;;;;;16.41;46.71;94885.81;10367898;28;20056;-28
2023/01/18 14:51:30;;;;;;;3.55;1.60;;;;;;;16.42;46.24;94900.09;10363244;28;20057;-28
2023/01/18 14:56:38;;;;;;;2.17;1.60;;;;;;;16.40;46.65;94899.31;10364393;28;20037;-29
2023/01/18 15:01:39;;;;;;;2.75;1.80;;;;;;;16.41;46.52;94911.06;10364473;28;20058;-28
2023/01/18 15:06:44;;;;;;;1.48;1.30;;;;;;;16.43;46.77;94914.38;10369924;28;20061;-28
2023/01/18 15:11:45;;;;;;;2.83;2.15;;;;;;;16.40;47.05;94909.41;10369479;28;20160;-27
2023/01/18 15:16:48;;;;;;;2.25;1.55;;;;;;;16.42;46.97;94927.03;10370340;28;20043;-28
2023/01/18 15:21:49;;;;;;;2.20;1.33;;;;;;;16.41;46.58;94935.47;10369752;28;20458;-28
2023/01/18 15:26:56;;;;;;;1.75;1.38;;;;;;;16.40;47.87;94939.72;10366526;28;20034;-26
2023/01/18 15:32:01;;;;;;;2.35;1.67;;;;;;;16.37;47.81;94949.84;10368446;28;20037;-28
2023/01/18 15:37:08;;;;;;;3.22;1.63;;;;;;;16.43;46.53;94967.41;10368821;28;20387;-28
2023/01/18 15:42:11;;;;;;;2.10;1.60;;;;;;;16.45;46.22;94968.22;10369723;28;20049;-28
2023/01/18 15:47:27;;;;;;;2.55;1.73;;;;;;;16.43;46.65;94969.94;10369169;28;20520;-29
2023/01/18 15:53:00;;;;;;;3.08;1.58;;;;;;;16.43;46.71;94982.56;10368526;28;20034;-27
2023/01/18 15:58:05;;;;;;;2.38;2.00;;;;;;;16.41;46.87;94985.97;10360360;28;20042;-28
2023/01/18 16:03:18;;;;;;;2.85;1.95;;;;;;;16.42;46.86;94988.50;10367955;28;20042;-27
2023/01/18 16:08:21;;;;;;;2.17;1.70;;;;;;;16.39;46.51;94996.13;10366927;28;20038;-28
2023/01/18 16:13:28;;;;;;;3.90;2.05;;;;;;;16.38;46.71;95007.06;10368847;28;20034;-27
2023/01/18 16:18:29;;;;;;;2.30;1.90;;;;;;;16.38;47.07;95017.16;10359506;28;20116;-26
2023/01/18 16:23:29;;;;;;;2.83;2.03;;;;;;;16.41;46.98;95024.72;10366720;28;20099;-27
2023/01/18 16:28:30;;;;;;;3.07;1.93;;;;;;;16.41;47.13;95034.81;10371596;28;20053;-28
2023/01/18 16:33:30;;;;;;;2.10;1.90;;;;;;;16.39;46.55;95043.28;10369263;28;20281;-27
2023/01/18 16:38:30;;;;;;;3.53;2.37;;;;;;;16.42;46.57;95048.25;10360870;28;20296;-28
2023/01/18 16:43:33;;;;;;;3.30;2.33;;;;;;;16.43;47.28;95060.00;10367953;28;20121;-28
2023/01/18 16:48:35;;;;;;;2.38;1.83;;;;;;;16.39;47.62;95055.91;10363627;28;20030;-27
2023/01/18 16:53:36;;;;;;;2.67;2.00;;;;;;;16.43;47.08;95076.00;10365996;28;20025;-27
2023/01/18 16:58:37;;;;;;;3.63;2.30;;;;;;;16.44;47.17;95085.25;10367752;28;20038;-28
2023/01/18 17:03:38;;;;;;;3.25;2.13;;;;;;;16.45;46.50;95091.97;10366195;28;20311;-27
2023/01/18 17:08:38;;;;;;;2.38;2.08;;;;;;;16.46;47.02;95097.88;10353131;28;20026;-28
2023/01/18 17:13:39;;;;;;;3.13;2.33;;;;;;;16.42;46.42;95084.47;10367120;28;20034;-27
2023/01/18 17:18:40;;;;;;;4.88;2.40;;;;;;;16.47;47.43;95113.00;10357828;28;20032;-28
2023/01/18 17:23:42;;;;;;;4.70;2.75;;;;;;;16.49;46.46;95130.63;10371835;28;20045;-28
2023/01/18 17:28:43;;;;;;;2.50;2.10;;;;;;;16.48;46.43;95139.91;10375020;28;20512;-28
2023/01/18 17:33:44;;;;;;;2.63;2.28;;;;;;;16.45;46.79;95156.81;10365265;28;20076;-28
2023/01/18 17:38:44;;;;;;;3.20;2.33;;;;;;;16.45;46.88;95155.09;10360504;28;20083;-28
2023/01/18 17:43:46;;;;;;;3.50;2.30;;;;;;;16.40;47.06;95167.00;10374309;28;20041;-28
2023/01/18 17:48:47;;;;;;;2.95;2.47;;;;;;;16.42;46.60;95175.38;10366037;28;20303;-28
2023/01/18 17:53:47;;;;;;;3.72;2.30;;;;;;;16.46;47.09;95189.59;10373019;28;20405;-27
2023/01/18 17:58:48;;;;;;;3.50;2.80;;;;;;;16.45;46.76;95195.50;10370024;28;20084;-28
2023/01/18 18:03:51;;;;;;;4.75;2.30;;;;;;;16.43;47.58;95194.72;10370836;28;20060;-28
2023/01/18 18:08:51;;;;;;;7.70;3.05;;;;;;;16.49;48.05;95209.78;10372916;28;20120;-28
2023/01/18 18:13:55;;;;;;;4.50;2.70;;;;;;;16.49;47.62;95212.31;10373633;28;20040;-28
2023/01/18 18:18:56;;;;;;;3.85;2.97;;;;;;;16.51;48.03;95232.47;10368389;28;20049;-28
2023/01/18 18:23:57;;;;;;;4.32;2.78;;;;;;;16.48;47.98;95235.91;10368025;28;20813;-28
2023/01/18 18:28:57;;;;;;;4.70;2.90;;;;;;;16.46;47.68;95245.16;10358707;28;20117;-27
2023/01/18 18:33:58;;;;;;;3.40;2.60;;;;;;;16.36;47.98;95251.19;10370708;28;20034;-28
2023/01/18 18:39:05;;;;;;;5.33;3.47;;;;;;;16.42;48.19;95261.25;10369486;28;20401;-29
2023/01/18 18:44:06;;;;;;;4.13;2.75;;;;;;;16.41;48.46;95272.22;10360102;28;20062;-28
2023/01/18 18:49:06;;;;;;;3.30;2.93;;;;;;;16.42;48.80;95283.97;10365285;28;20129;-28
2023/01/18 18:54:09;;;;;;;6.22;3.10;;;;;;;16.39;47.81;95291.59;10367906;28;20038;-28
2023/01/18 18:59:09;;;;;;;7.18;3.08;;;;;;;16.40;48.32;95308.44;10379358;28;20490;-28
2023/01/18 19:04:10;;;;;;;7.77;3.27;;;;;;;16.35;48.27;95301.75;10368428;28;20060;-28
2023/01/18 19:09:10;;;;;;;6.22;3.10;;;;;;;16.40;47.42;95323.59;10359981;28;20038;-27
2023/01/18 19:14:13;;;;;;;7.40;3.10;;;;;;;16.36;47.63;95319.38;10371133;28;20061;-28
2023/01/18 19:19:13;;;;;;;6.00;3.30;;;;;;;16.37;46.46;95332.88;10366962;28;20060;-28
2023/01/18 19:24:14;;;;;;;7.00;3.90;;;;;;;16.38;49.64;95345.47;10369285;28;20044;-28
2023/01/18 19:29:17;;;;;;;10.77;3.47;;;;;;;16.32;50.80;95353.13;10367430;28;21482;-28
2023/01/18 19:34:19;;;;;;;4.97;3.20;;;;;;;16.35;49.47;95360.66;10363879;28;20026;-27
2023/01/18 19:39:20;;;;;;;7.65;3.38;;;;;;;16.37;48.40;95358.97;10367697;28;20061;-27
2023/01/18 19:44:20;;;;;;;6.93;3.43;;;;;;;16.32;48.62;95365.75;10377110;28;20476;-28
2023/01/18 19:49:23;;;;;;;6.77;3.33;;;;;;;16.36;47.08;95366.53;10373546;28;20461;-28
2023/01/18 19:54:24;;;;;;;4.22;2.72;;;;;;;16.39;47.56;95371.56;10346263;28;20036;-28
2023/01/18 19:59:24;;;;;;;5.87;3.00;;;;;;;16.39;46.88;95374.94;10368643;28;20044;-28
2023/01/18 20:04:24;;;;;;;4.80;3.03;;;;;;;16.36;47.52;95371.59;10365344;28;20076;-28
2023/01/18 20:09:25;;;;;;;4.27;3.67;;;;;;;16.34;48.05;95380.84;10355284;28;20501;-28
2023/01/18 20:14:26;;;;;;;4.20;3.07;;;;;;;16.32;47.76;95383.44;10366884;28;20028;-27
2023/01/18 20:19:26;;;;;;;4.57;2.92;;;;;;;16.28;46.38;95394.41;10362890;28;20034;-28
2023/01/18 20:24:26;;;;;;;4.47;2.93;;;;;;;16.31;46.33;95399.44;10358144;28;20026;-28
2023/01/18 20:29:28;;;;;;;5.33;2.97;;;;;;;16.35;46.88;95400.22;10370871;28;20029;-28
2023/01/18 20:34:32;;;;;;;4.63;3.50;;;;;;;16.37;46.21;95398.56;10361368;28;20440;-27
2023/01/18 20:39:32;;;;;;;3.33;2.75;;;;;;;16.39;46.62;95407.78;10361613;28;20026;-28
2023/01/18 20:44:33;;;;;;;4.17;2.83;;;;;;;16.36;46.51;95412.81;10361637;28;20030;-27
2023/01/18 20:49:33;;;;;;;4.88;2.85;;;;;;;16.29;47.23;95416.28;10359756;28;20040;-27
2023/01/18 20:54:34;;;;;;;4.53;2.60;;;;;;;16.29;47.13;95426.38;10352751;28;20026;-27
2023/01/18 20:59:35;;;;;;;5.47;3.33;;;;;;;16.31;46.93;95446.56;10355523;28;20350;-28
2023/01/18 21:04:35;;;;;;;4.63;3.42;;;;;;;16.34;47.29;95434.75;10357583;28;20422;-28
2023/01/18 21:09:35;;;;;;;4.37;3.07;;;;;;;16.28;47.07;95437.31;10350935;28;20233;-28
2023/01/18 21:14:36;;;;;;;4.50;2.90;;;;;;;16.37;47.44;95449.88;10365785;28;20026;-28
2023/01/18 21:19:36;;;;;;;3.53;2.83;;;;;;;16.38;47.05;95454.06;10364391;28;20045;-28
2023/01/18 21:24:37;;;;;;;3.10;2.63;;;;;;;16.30;46.77;95452.47;10366434;28;20095;-28
2023/01/18 21:29:37;;;;;;;3.58;2.83;;;;;;;16.34;47.50;95464.19;10374757;28;20029;-28
2023/01/18 21:34:37;;;;;;;3.97;2.60;;;;;;;16.34;48.13;95466.72;10360522;28;20071;-28
2023/01/18 21:39:38;;;;;;;5.83;3.20;;;;;;;16.34;48.14;95470.09;10367494;28;20084;-28
2023/01/18 21:55:37;;;;;;;4.93;2.70;;;;;;;16.32;49.25;95476.88;10353420;28;20409;-27
2023/01/18 22:00:42;;;;;;;4.70;3.00;;;;;;;16.30;49.05;95478.53;10366698;28;20040;-28
2023/01/18 22:05:42;;;;;;;4.03;3.42;;;;;;;16.29;50.78;95497.06;10367604;28;20038;-28
2023/01/18 22:10:48;;;;;;;7.30;2.23;;;;;;;16.24;50.26;95493.78;10364030;28;20332;-27
2023/01/18 22:15:49;;;;;;;3.35;2.47;;;;;;;16.27;50.08;95503.03;10373731;28;20041;-28
2023/01/18 22:20:55;;;;;;;4.60;2.50;;;;;;;16.33;49.45;95518.94;10371698;28;20496;-28
2023/01/18 22:25:55;;;;;;;5.65;2.50;;;;;;;16.33;49.83;95518.94;10374651;28;20505;-27
2023/01/18 22:30:57;;;;;;;4.90;2.93;;;;;;;16.34;49.28;95525.66;10366136;28;20099;-27
2023/01/18 22:35:59;;;;;;;2.75;2.53;;;;;;;16.35;49.02;95534.91;10376614;28;20033;-27
2023/01/18 22:41:04;;;;;;;4.88;2.88;;;;;;;16.33;49.13;95526.50;10378822;28;20038;-27
2023/01/18 22:46:06;;;;;;;2.97;2.47;;;;;;;16.33;48.70;95534.09;10370811;28;20526;-28
2023/01/18 22:51:09;;;;;;;6.57;2.72;;;;;;;16.33;48.36;95524.00;10379850;28;20037;-28
2023/01/18 22:56:13;;;;;;;2.60;2.28;;;;;;;16.35;47.85;95537.44;10368115;28;20041;-29
2023/01/18 23:01:18;;;;;;;3.58;2.53;;;;;;;16.33;48.46;95539.13;10365801;28;20034;-28
2023/01/18 23:06:19;;;;;;;3.10;2.28;;;;;;;16.30;48.04;95539.16;10372207;28;20039;-27
2023/01/18 23:11:25;;;;;;;4.25;2.65;;;;;;;16.33;47.94;95544.19;10363806;28;20030;-28
2023/01/18 23:21:44;;;;;;;5.63;2.85;;;;;;;16.33;48.03;95553.44;10365270;28;20069;-27
2023/01/18 23:26:45;;;;;;;2.70;2.10;;;;;;;16.29;49.72;95552.63;10365615;28;20489;-28
2023/01/18 23:31:45;;;;;;;3.95;3.35;;;;;;;16.29;49.55;95557.69;10372967;28;20030;-28
2023/01/18 23:36:46;;;;;;;4.20;2.10;;;;;;;16.31;48.49;95561.06;10370068;28;20046;-28
2023/01/18 23:57:42;;;;;;;2.60;1.75;;;;;;;16.32;47.40;95567.78;10365833;28;20069;-29
